Time;durP1;ratioP1;P1;durP2;ratioP2;P2;SDS_P1;SDS_P2;PMS_P1;PMS_P2;Temp;Humidity;BMP_temperature;BMP_pressure;BME280_temperature;BME280_humidity;BME280_pressure;Samples;Min_cycle;Max_cycle;Signal;HPM_P1;HPM_P2
2022/12/02 00:00:57;;;;;;;40.80;18.57;;;;;;;0.39;100.00;102102.13;4939517;29;20122;-85
2022/12/02 00:03:24;;;;;;;45.37;19.47;;;;;;;0.36;100.00;102096.81;4932293;29;20043;-82
2022/12/02 00:05:54;;;;;;;45.13;21.03;;;;;;;0.44;100.00;102104.94;4938945;29;20054;-84
2022/12/02 00:08:30;;;;;;;44.27;19.30;;;;;;;0.49;100.00;102103.41;4936887;28;20105;-82
2022/12/02 00:10:59;;;;;;;39.90;18.73;;;;;;;0.60;100.00;102103.91;4951417;28;20078;-82
2022/12/02 00:13:42;;;;;;;44.30;20.63;;;;;;;0.48;100.00;102099.94;4935850;29;20123;-83
2022/12/02 00:16:21;;;;;;;37.57;19.10;;;;;;;0.42;100.00;102094.47;4935474;29;20051;-84
2022/12/02 00:18:49;;;;;;;43.23;19.20;;;;;;;0.48;100.00;102099.03;4950154;28;20683;-82
2022/12/02 00:21:16;;;;;;;44.40;20.63;;;;;;;0.64;100.00;102087.59;4935144;29;20039;-82
2022/12/02 00:23:43;;;;;;;42.80;20.13;;;;;;;0.67;100.00;102082.50;4944176;29;20686;-82
2022/12/02 00:26:11;;;;;;;42.40;18.40;;;;;;;0.54;100.00;102087.19;4934324;29;20844;-83
2022/12/02 00:28:40;;;;;;;45.83;19.03;;;;;;;0.48;100.00;102094.72;4938869;29;20036;-84
2022/12/02 00:31:07;;;;;;;43.80;18.83;;;;;;;0.62;100.00;102081.44;4937853;29;20047;-83
2022/12/02 00:33:34;;;;;;;39.67;17.70;;;;;;;0.53;100.00;102088.03;4943417;28;20425;-83
2022/12/02 00:36:01;;;;;;;45.20;20.33;;;;;;;0.55;100.00;102090.69;4922594;29;20050;-82
2022/12/02 00:38:28;;;;;;;44.10;21.23;;;;;;;0.51;100.00;102086.19;4935924;29;20032;-85
2022/12/02 00:40:55;;;;;;;44.53;19.80;;;;;;;0.50;100.00;102085.28;4919769;29;20050;-82
2022/12/02 00:49:03;;;;;;;40.17;18.47;;;;;;;0.54;100.00;102082.00;4941236;28;20027;-83
2022/12/02 00:51:30;;;;;;;;;;;;;;;0.45;100.00;102086.81;4937005;29;20045;-83
2022/12/02 00:53:57;;;;;;;40.73;19.20;;;;;;;0.31;100.00;102085.31;4952913;28;19922;-83
2022/12/02 00:56:24;;;;;;;44.67;20.33;;;;;;;0.55;100.00;102085.47;4938264;29;20047;-83
2022/12/02 00:58:51;;;;;;;45.20;21.57;;;;;;;0.53;100.00;102080.22;4936419;28;20403;-85
2022/12/02 01:01:18;;;;;;;45.33;21.83;;;;;;;0.36;100.00;102080.31;4937424;29;20035;-83
2022/12/02 01:03:45;;;;;;;42.60;19.97;;;;;;;0.46;100.00;102082.50;4945531;29;20037;-84
2022/12/02 01:06:13;;;;;;;42.00;19.77;;;;;;;0.46;100.00;102083.38;4932009;29;20049;-83
2022/12/02 01:08:40;;;;;;;43.40;20.10;;;;;;;0.50;100.00;102081.78;4925807;29;20050;-84
2022/12/02 01:11:07;;;;;;;41.00;20.67;;;;;;;0.42;100.00;102080.56;4934012;29;20074;-83
2022/12/02 01:13:33;;;;;;;49.63;20.73;;;;;;;0.42;100.00;102085.75;4921563;29;20047;-83
2022/12/02 01:16:00;;;;;;;50.17;21.50;;;;;;;0.46;100.00;102082.50;4951879;28;20047;-82
2022/12/02 01:18:27;;;;;;;48.93;21.80;;;;;;;0.42;100.00;102083.16;4937852;29;20047;-84
2022/12/02 01:20:54;;;;;;;46.20;22.37;;;;;;;0.49;100.00;102083.50;4938305;29;20420;-83
2022/12/02 01:23:21;;;;;;;45.80;22.67;;;;;;;0.56;100.00;102074.25;4914884;29;20065;-84
2022/12/02 01:25:48;;;;;;;49.47;21.40;;;;;;;0.73;100.00;102080.16;4933315;29;20035;-82
2022/12/02 01:28:16;;;;;;;45.57;21.23;;;;;;;0.56;100.00;102074.25;4932914;29;20028;-84
2022/12/02 01:30:43;;;;;;;45.60;22.10;;;;;;;0.66;100.00;102080.72;4949073;28;20047;-82
2022/12/02 01:33:10;;;;;;;46.77;20.67;;;;;;;0.54;100.00;102071.59;4942970;29;20050;-85
2022/12/02 01:35:36;;;;;;;49.70;20.97;;;;;;;0.48;100.00;102078.25;4917344;29;20134;-83
2022/12/02 01:38:04;;;;;;;48.53;21.90;;;;;;;0.40;100.00;102067.50;4932046;29;20045;-84
2022/12/02 01:40:31;;;;;;;43.30;20.50;;;;;;;0.54;100.00;102069.00;4950150;28;20047;-83
2022/12/02 01:42:58;;;;;;;51.70;20.60;;;;;;;0.50;100.00;102066.19;4935289;28;20058;-84
2022/12/02 01:45:25;;;;;;;48.10;21.53;;;;;;;0.53;100.00;102072.41;4934812;28;20049;-82
2022/12/02 01:47:52;;;;;;;47.97;22.17;;;;;;;0.53;100.00;102063.72;4929484;29;20039;-82
2022/12/02 01:50:19;;;;;;;53.97;22.60;;;;;;;0.69;100.00;102060.06;4936082;28;20047;-83
2022/12/02 01:52:46;;;;;;;48.60;22.33;;;;;;;0.42;100.00;102062.38;4936850;29;20972;-82
2022/12/02 01:55:18;;;;;;;53.53;22.03;;;;;;;0.67;100.00;102064.31;4951709;29;20040;-83
2022/12/02 01:57:45;;;;;;;49.93;22.63;;;;;;;0.59;100.00;102063.09;4938619;29;20038;-83
2022/12/02 02:00:13;;;;;;;51.53;22.83;;;;;;;0.41;100.00;102063.19;4917708;28;20043;-82
2022/12/02 02:02:40;;;;;;;44.27;19.30;;;;;;;0.42;100.00;102046.75;4936879;29;20036;-82
2022/12/02 02:05:16;;;;;;;43.27;19.03;;;;;;;0.40;100.00;102054.50;4949807;28;20293;-84
2022/12/02 02:07:45;;;;;;;46.13;22.03;;;;;;;0.49;100.00;102057.50;4919332;29;20039;-83
2022/12/02 02:10:12;;;;;;;44.20;21.87;;;;;;;0.41;100.00;102047.59;4927603;28;20047;-82
2022/12/02 02:12:39;;;;;;;45.50;20.47;;;;;;;0.38;100.00;102056.16;4951172;28;20035;-82
2022/12/02 02:15:08;;;;;;;52.17;23.53;;;;;;;0.35;100.00;102047.34;4937911;29;20047;-83
2022/12/02 02:17:35;;;;;;;44.40;20.40;;;;;;;0.49;100.00;102059.22;4943411;28;20043;-85
2022/12/02 02:20:04;;;;;;;40.17;19.77;;;;;;;0.47;100.00;102060.88;4953691;28;20126;-83
2022/12/02 02:22:52;;;;;;;46.87;22.77;;;;;;;0.57;100.00;102055.22;4937627;29;20039;-84
2022/12/02 02:25:19;;;;;;;44.30;21.20;;;;;;;0.54;100.00;102065.50;4938200;29;20128;-83
2022/12/02 02:27:52;;;;;;;47.93;21.70;;;;;;;0.65;100.00;102052.94;4922925;29;20057;-82
2022/12/02 02:30:19;;;;;;;49.90;22.20;;;;;;;0.74;100.00;102058.53;4940708;29;20400;-82
2022/12/02 02:32:47;;;;;;;51.40;21.67;;;;;;;0.50;100.00;102059.28;4938786;29;20050;-83
2022/12/02 02:35:14;;;;;;;55.30;22.20;;;;;;;0.65;100.00;102048.63;4941200;29;20035;-84
2022/12/02 02:37:42;;;;;;;46.50;21.70;;;;;;;0.49;100.00;102041.91;4937453;29;20429;-84
2022/12/02 02:40:10;;;;;;;45.83;21.63;;;;;;;0.30;100.00;102060.13;4921701;28;20049;-82
2022/12/02 02:42:37;;;;;;;48.00;21.20;;;;;;;0.37;100.00;102050.91;4938802;29;20036;-82
2022/12/02 02:45:04;;;;;;;43.07;22.33;;;;;;;0.40;100.00;102051.03;4937827;29;20055;-84
2022/12/02 02:47:31;;;;;;;53.60;22.67;;;;;;;0.42;100.00;102049.38;4941282;29;20043;-82
2022/12/02 02:49:58;;;;;;;47.50;22.07;;;;;;;0.37;100.00;102044.00;4939764;28;20043;-84
2022/12/02 02:52:25;;;;;;;39.93;19.43;;;;;;;0.33;100.00;102049.84;4952386;29;20038;-82
2022/12/02 02:54:52;;;;;;;50.97;22.33;;;;;;;0.50;100.00;102043.66;4958934;28;20859;-83
2022/12/02 02:57:19;;;;;;;55.50;24.13;;;;;;;0.68;100.00;102045.28;4943131;29;21288;-83
2022/12/02 02:59:48;;;;;;;48.60;22.03;;;;;;;0.68;100.00;102038.38;4965943;28;20035;-83
2022/12/02 03:02:15;;;;;;;44.23;20.40;;;;;;;0.62;100.00;102047.63;4946665;28;20035;-82
2022/12/02 03:04:42;;;;;;;46.83;20.93;;;;;;;0.57;100.00;102045.72;4949029;28;20041;-83
2022/12/02 03:07:09;;;;;;;47.17;23.23;;;;;;;0.59;100.00;102043.19;4953639;28;20034;-82
2022/12/02 03:09:36;;;;;;;51.17;24.27;;;;;;;0.56;100.00;102051.75;4924296;28;20031;-84
2022/12/02 03:12:04;;;;;;;44.83;20.00;;;;;;;0.48;100.00;102047.03;4939162;29;20043;-82
2022/12/02 03:14:31;;;;;;;48.20;22.30;;;;;;;0.64;100.00;102054.66;4923842;28;20035;-84
2022/12/02 03:17:00;;;;;;;49.63;22.37;;;;;;;0.56;100.00;102043.94;4909491;29;20054;-82
2022/12/02 03:19:29;;;;;;;45.00;21.60;;;;;;;0.54;100.00;102043.00;4923017;28;20040;-84
2022/12/02 03:21:56;;;;;;;50.33;22.17;;;;;;;0.59;100.00;102045.81;4940104;29;20050;-82
2022/12/02 03:24:23;;;;;;;46.53;20.80;;;;;;;0.48;100.00;102050.53;4943204;28;20054;-82
2022/12/02 03:26:50;;;;;;;53.07;24.00;;;;;;;0.39;100.00;102036.25;4921743;29;20053;-82
2022/12/02 03:29:18;;;;;;;46.87;21.60;;;;;;;0.44;100.00;102035.63;4936185;28;20045;-83
2022/12/02 03:31:45;;;;;;;49.27;22.17;;;;;;;0.66;100.00;102036.53;4923066;29;20043;-83
2022/12/02 03:34:12;;;;;;;65.03;24.30;;;;;;;0.66;100.00;102039.13;4919512;29;20057;-83
2022/12/02 03:36:39;;;;;;;45.87;21.97;;;;;;;0.51;100.00;102040.28;4912946;28;20047;-83
2022/12/02 03:39:07;;;;;;;52.17;22.93;;;;;;;0.52;100.00;102033.38;4946708;29;20408;-82
2022/12/02 03:41:33;;;;;;;47.03;22.23;;;;;;;0.56;100.00;102032.66;4911817;29;20440;-83
2022/12/02 03:44:00;;;;;;;46.90;22.77;;;;;;;0.42;100.00;102025.97;4917236;29;20102;-82
2022/12/02 03:46:28;;;;;;;57.40;23.10;;;;;;;0.50;100.00;102035.88;4962647;28;20035;-84
2022/12/02 03:48:55;;;;;;;56.27;22.97;;;;;;;0.56;100.00;102036.13;4929562;29;20039;-82
2022/12/02 03:51:22;;;;;;;48.03;21.43;;;;;;;0.73;100.00;102031.63;4931331;28;20042;-82
2022/12/02 03:53:49;;;;;;;48.30;23.47;;;;;;;0.67;100.00;102033.09;4922694;29;20043;-82
2022/12/02 03:56:16;;;;;;;49.73;22.20;;;;;;;0.56;100.00;102033.53;4933220;29;20108;-83
2022/12/02 03:58:50;;;;;;;43.07;21.50;;;;;;;0.49;100.00;102038.41;4943371;28;20030;-83
2022/12/02 04:01:19;;;;;;;49.13;20.40;;;;;;;0.52;100.00;102031.66;4971196;28;20045;-83
2022/12/02 04:03:45;;;;;;;48.80;20.93;;;;;;;0.45;100.00;102033.91;4937197;28;20509;-84
2022/12/02 04:06:13;;;;;;;47.17;21.10;;;;;;;0.61;100.00;102027.66;4937964;29;20039;-83
2022/12/02 04:08:40;;;;;;;52.60;22.37;;;;;;;0.75;100.00;102018.69;4938666;29;20045;-84
2022/12/02 04:11:07;;;;;;;53.80;23.50;;;;;;;0.36;100.00;102028.34;4922110;29;20039;-84
2022/12/02 04:13:33;;;;;;;44.80;19.40;;;;;;;0.53;100.00;102028.22;4938505;29;20047;-82
2022/12/02 04:16:00;;;;;;;43.50;20.70;;;;;;;0.60;100.00;102034.56;4935727;29;20039;-84
2022/12/02 04:18:27;;;;;;;39.13;20.03;;;;;;;0.52;100.00;102029.03;4969388;28;20031;-82
2022/12/02 04:20:54;;;;;;;45.93;20.97;;;;;;;0.63;100.00;102026.00;4940090;29;20408;-83
2022/12/02 04:23:21;;;;;;;46.00;21.20;;;;;;;0.62;100.00;102025.13;4956037;28;20057;-82
2022/12/02 04:25:48;;;;;;;45.50;19.83;;;;;;;0.59;100.00;102026.69;4957383;28;20130;-82
2022/12/02 04:28:15;;;;;;;45.20;20.93;;;;;;;0.63;100.00;102024.28;4941565;29;20556;-82
2022/12/02 04:30:42;;;;;;;41.27;19.23;;;;;;;0.52;100.00;102020.34;4923033;29;20049;-82
2022/12/02 04:33:09;;;;;;;39.87;19.50;;;;;;;0.73;100.00;102023.84;4923654;29;20039;-84
2022/12/02 04:35:36;;;;;;;38.87;18.67;;;;;;;0.50;100.00;102021.97;4924774;29;20047;-84
2022/12/02 04:38:03;;;;;;;35.40;17.37;;;;;;;0.40;100.00;102028.50;4954108;29;20050;-83
2022/12/02 04:40:37;;;;;;;37.10;17.93;;;;;;;0.57;100.00;102024.03;4936373;29;20448;-83
2022/12/02 04:43:04;;;;;;;41.07;19.70;;;;;;;0.59;100.00;102022.41;4952005;29;20055;-83
2022/12/02 04:45:31;;;;;;;39.03;19.27;;;;;;;0.65;100.00;102014.81;4951983;29;20671;-82
2022/12/02 04:47:58;;;;;;;42.13;18.70;;;;;;;0.74;100.00;102012.59;4921711;29;20077;-83
2022/12/02 04:50:25;;;;;;;37.93;17.33;;;;;;;0.55;100.00;102012.69;4954266;28;20053;-83
2022/12/02 04:52:52;;;;;;;35.83;16.97;;;;;;;0.83;100.00;102015.56;4953718;28;20038;-83
2022/12/02 04:55:19;;;;;;;34.03;15.60;;;;;;;0.71;100.00;102009.88;4951300;29;20039;-83
2022/12/02 04:57:46;;;;;;;35.80;16.73;;;;;;;0.59;100.00;102017.19;4902983;29;20047;-84
2022/12/02 05:00:13;;;;;;;35.97;17.50;;;;;;;0.49;100.00;102015.00;4904210;29;20046;-82
2022/12/02 05:02:40;;;;;;;37.33;17.40;;;;;;;0.43;100.00;102014.78;4946395;29;20051;-83
2022/12/02 05:05:07;;;;;;;31.93;15.70;;;;;;;0.52;100.00;102018.66;4937336;29;20051;-82
2022/12/02 05:07:34;;;;;;;31.27;15.40;;;;;;;0.47;100.00;102009.75;4920750;29;20054;-83
2022/12/02 05:10:02;;;;;;;32.03;15.93;;;;;;;0.53;100.00;102012.63;4972526;23;20052;-79
2022/12/02 05:12:29;;;;;;;34.90;16.83;;;;;;;0.56;100.00;101999.72;4898284;29;20112;-80
2022/12/02 05:14:56;;;;;;;34.23;17.83;;;;;;;0.56;100.00;102012.72;4893030;29;20116;-79
2022/12/02 05:17:23;;;;;;;32.63;15.33;;;;;;;0.51;100.00;102009.06;4901788;29;20119;-79
2022/12/02 05:19:50;;;;;;;34.53;17.37;;;;;;;0.58;100.00;102010.19;4909044;29;20592;-79
2022/12/02 05:22:17;;;;;;;34.90;16.13;;;;;;;0.59;100.00;102008.47;4893012;29;20103;-79
2022/12/02 05:24:46;;;;;;;35.37;16.57;;;;;;;0.71;100.00;102003.78;4907108;29;20134;-79
2022/12/02 05:27:14;;;;;;;31.53;15.70;;;;;;;0.69;100.00;102005.47;4891214;29;20092;-79
2022/12/02 05:29:41;;;;;;;34.10;17.97;;;;;;;0.56;100.00;102006.66;4915537;29;20118;-79
2022/12/02 05:32:08;;;;;;;35.60;16.87;;;;;;;0.50;100.00;102002.06;4907270;29;20143;-79
2022/12/02 05:34:35;;;;;;;31.23;15.23;;;;;;;0.56;100.00;102007.53;4926482;29;20628;-80
2022/12/02 05:37:02;;;;;;;36.00;17.33;;;;;;;0.62;100.00;102008.63;4914843;29;20104;-80
2022/12/02 05:39:29;;;;;;;31.40;16.73;;;;;;;0.69;100.00;102010.66;4891148;29;20088;-79
2022/12/02 05:42:02;;;;;;;34.13;15.90;;;;;;;0.84;100.00;102013.84;4908126;29;20566;-79
2022/12/02 05:44:29;;;;;;;29.70;15.03;;;;;;;0.77;100.00;102017.06;4894412;29;20095;-80
2022/12/02 05:47:13;;;;;;;29.23;15.27;;;;;;;0.57;100.00;102022.31;4921902;29;20104;-79
2022/12/02 05:49:41;;;;;;;31.80;14.73;;;;;;;0.68;100.00;102006.28;4906077;29;20115;-80
2022/12/02 05:52:20;;;;;;;36.40;16.37;;;;;;;0.76;100.00;102017.91;4890746;29;20116;-81
2022/12/02 05:54:47;;;;;;;31.37;15.90;;;;;;;0.84;100.00;102013.84;4890905;29;20196;-80
2022/12/02 05:57:22;;;;;;;33.60;15.67;;;;;;;0.60;100.00;102018.09;4877241;29;20123;-79
2022/12/02 06:00:17;;;;;;;30.97;16.00;;;;;;;0.82;100.00;102015.53;4906964;29;20108;-80
2022/12/02 06:02:49;;;;;;;36.53;15.67;;;;;;;0.82;100.00;102025.91;4879859;29;20108;-79
2022/12/02 06:05:23;;;;;;;34.27;15.40;;;;;;;0.73;100.00;102031.63;4910283;29;20123;-80
2022/12/02 06:07:58;;;;;;;34.90;18.27;;;;;;;0.75;100.00;102032.56;4925850;29;20111;-81
2022/12/02 06:10:31;;;;;;;28.47;14.30;;;;;;;0.57;100.00;102034.41;4905291;29;20104;-79
2022/12/02 06:13:08;;;;;;;33.23;15.13;;;;;;;0.61;100.00;102036.34;4890876;29;20155;-80
2022/12/02 06:15:37;;;;;;;33.63;15.63;;;;;;;0.72;100.00;102034.19;4890521;29;20104;-80
2022/12/02 06:18:16;;;;;;;29.77;14.70;;;;;;;0.62;100.00;102029.44;4886899;29;20522;-80
2022/12/02 06:20:45;;;;;;;30.97;15.43;;;;;;;0.56;100.00;102030.94;4888799;29;20123;-80
2022/12/02 06:23:15;;;;;;;27.97;13.90;;;;;;;0.58;100.00;102028.38;4889814;29;20104;-81
2022/12/02 06:25:43;;;;;;;34.30;16.70;;;;;;;0.76;100.00;102023.09;4890470;29;20123;-81
2022/12/02 06:28:21;;;;;;;29.70;15.03;;;;;;;0.70;100.00;102028.91;4874959;29;20120;-81
2022/12/02 06:30:48;;;;;;;32.03;15.30;;;;;;;0.75;100.00;102026.50;4890635;29;20092;-81
2022/12/02 06:33:28;;;;;;;27.63;14.20;;;;;;;0.79;100.00;102031.00;4872218;29;20517;-79
2022/12/02 06:35:56;;;;;;;34.23;16.23;;;;;;;0.75;100.00;102023.88;4865091;29;20582;-80
2022/12/02 06:38:29;;;;;;;29.77;15.33;;;;;;;0.76;100.00;102029.19;4865833;29;20592;-80
2022/12/02 06:40:58;;;;;;;33.77;16.43;;;;;;;0.77;100.00;102028.34;4892557;29;20120;-81
2022/12/02 06:43:29;;;;;;;29.00;15.40;;;;;;;0.70;100.00;102041.94;4892862;29;20113;-79
2022/12/02 06:45:56;;;;;;;32.33;14.67;;;;;;;0.63;100.00;102033.81;4907441;29;20168;-79
2022/12/02 06:48:33;;;;;;;32.10;15.13;;;;;;;0.68;100.00;102034.91;4891382;29;20144;-80
2022/12/02 06:51:11;;;;;;;28.97;14.43;;;;;;;0.69;100.00;102034.06;4914269;29;20132;-79
2022/12/02 06:53:38;;;;;;;29.73;14.67;;;;;;;0.77;100.00;102035.28;4881810;29;20574;-79
2022/12/02 06:56:27;;;;;;;31.07;15.77;;;;;;;0.68;100.00;102034.91;4879283;29;20103;-79
2022/12/02 06:58:59;;;;;;;30.87;15.20;;;;;;;0.63;100.00;102032.09;4916021;29;20104;-81
2022/12/02 07:01:26;;;;;;;28.63;15.67;;;;;;;0.59;100.00;102037.06;4895512;29;20123;-79
2022/12/02 07:04:04;;;;;;;30.40;14.47;;;;;;;0.68;100.00;102032.28;4928978;29;20117;-79
2022/12/02 07:06:32;;;;;;;29.57;15.27;;;;;;;0.76;100.00;102025.69;4903454;29;20158;-80
2022/12/02 07:09:24;;;;;;;30.10;14.30;;;;;;;0.73;100.00;102035.94;4858257;29;20113;-80
2022/12/02 07:11:54;;;;;;;34.63;14.80;;;;;;;0.85;100.00;102033.88;4904392;29;20055;-80
2022/12/02 07:14:25;;;;;;;28.47;15.20;;;;;;;0.78;100.00;102037.03;4888765;29;20134;-80
2022/12/02 07:16:59;;;;;;;30.20;13.70;;;;;;;0.74;100.00;102032.53;4876083;29;20127;-80
2022/12/02 07:19:36;;;;;;;27.37;14.90;;;;;;;0.78;100.00;102024.91;4898837;29;20051;-79
2022/12/02 07:22:12;;;;;;;31.27;14.07;;;;;;;0.87;100.00;102031.31;4906863;29;20568;-80
2022/12/02 07:24:39;;;;;;;29.00;15.03;;;;;;;0.81;100.00;102027.63;4887590;29;20130;-80
2022/12/02 07:27:15;;;;;;;26.23;13.47;;;;;;;0.74;100.00;102030.81;4894857;29;20131;-80
2022/12/02 07:29:42;;;;;;;25.37;12.43;;;;;;;0.78;100.00;102029.25;4903670;29;20162;-80
2022/12/02 07:32:09;;;;;;;31.63;14.97;;;;;;;0.77;100.00;102027.47;4893571;29;20096;-79
2022/12/02 07:34:35;;;;;;;31.63;15.40;;;;;;;0.68;100.00;102030.56;4905679;29;20647;-80
2022/12/02 07:37:02;;;;;;;31.60;14.80;;;;;;;0.68;100.00;102038.38;4901750;29;20040;-82
2022/12/02 07:39:30;;;;;;;32.37;15.07;;;;;;;0.74;100.00;102037.72;4888440;29;20047;-79
2022/12/02 07:41:56;;;;;;;32.00;16.07;;;;;;;0.72;100.00;102041.97;4918380;29;20526;-81
2022/12/02 07:44:23;;;;;;;30.57;14.83;;;;;;;0.78;100.00;102039.66;4920758;29;20040;-80
2022/12/02 12:03:11;;;;;;;19.97;9.43;;;;;;;1.26;100.00;101941.81;4986990;23;20193;-82
2022/12/02 12:05:40;;;;;;;21.17;9.67;;;;;;;1.26;100.00;101938.28;4921885;29;20041;-80
2022/12/02 12:08:07;;;;;;;23.90;11.80;;;;;;;1.33;100.00;101937.69;4918263;29;20046;-81
2022/12/02 12:10:36;;;;;;;23.17;10.10;;;;;;;1.33;100.00;101941.19;4917667;29;20461;-80
2022/12/02 12:13:51;;;;;;;18.03;10.00;;;;;;;1.41;100.00;101933.66;4914004;29;20044;-80
2022/12/02 12:16:25;;;;;;;23.20;10.53;;;;;;;1.27;100.00;101942.69;4900173;29;20040;-80
2022/12/02 12:18:54;;;;;;;23.33;10.73;;;;;;;1.25;100.00;101933.91;4911678;29;20467;-81
2022/12/02 12:21:31;;;;;;;21.88;11.15;;;;;;;1.32;100.00;101935.94;4895936;29;20044;-80
2022/12/02 12:24:21;;;;;;;20.60;10.93;;;;;;;1.47;100.00;101944.31;4932427;29;20051;-79
2022/12/02 12:26:56;;;;;;;24.07;11.10;;;;;;;1.58;100.00;101929.06;4914984;29;20051;-79
2022/12/02 12:29:26;;;;;;;23.00;11.30;;;;;;;1.60;100.00;101933.53;4899001;29;20051;-79
2022/12/02 12:31:54;;;;;;;20.47;10.67;;;;;;;1.64;98.21;101929.31;4888933;29;20074;-80
2022/12/02 12:34:21;;;;;;;25.10;12.30;;;;;;;1.63;100.00;101933.63;4915653;29;20044;-78
2022/12/02 12:36:48;;;;;;;23.20;10.83;;;;;;;1.80;100.00;101925.53;4909904;29;20061;-80
2022/12/02 12:39:16;;;;;;;22.37;11.30;;;;;;;1.74;98.25;101933.13;4913457;29;20048;-81
2022/12/02 12:41:43;;;;;;;28.57;12.63;;;;;;;1.87;98.57;101931.03;4914298;29;20036;-81
2022/12/02 12:44:28;;;;;;;24.17;12.45;;;;;;;1.77;94.75;101938.47;4917722;29;20047;-81
2022/12/02 12:47:06;;;;;;;25.17;11.73;;;;;;;1.74;95.54;101939.22;4915810;29;20081;-81
2022/12/02 12:49:36;;;;;;;22.73;11.27;;;;;;;1.68;96.01;101937.31;4916141;29;20044;-81
2022/12/02 12:52:07;;;;;;;24.07;12.07;;;;;;;1.48;94.52;101938.28;4897102;29;20498;-80
2022/12/02 12:54:34;;;;;;;24.93;12.43;;;;;;;1.48;97.65;101933.06;4918974;29;20039;-81
2022/12/02 12:57:02;;;;;;;26.93;12.43;;;;;;;1.60;95.36;101933.53;4913367;29;20056;-82
2022/12/02 12:59:29;;;;;;;27.43;12.40;;;;;;;1.58;93.28;101939.50;4915832;29;20039;-82
2022/12/02 13:02:02;;;;;;;24.23;14.47;;;;;;;1.49;94.15;101939.16;4913437;29;20074;-80
2022/12/02 13:04:29;;;;;;;28.93;13.53;;;;;;;1.47;95.12;101935.63;4919590;29;20032;-80
2022/12/02 13:06:57;;;;;;;28.97;13.63;;;;;;;1.34;95.56;101942.97;4916539;29;20117;-81
2022/12/02 13:09:24;;;;;;;24.17;12.33;;;;;;;1.31;96.44;101936.75;4900372;29;20035;-81
2022/12/02 13:11:52;;;;;;;28.30;12.80;;;;;;;1.24;97.08;101935.63;4888475;29;20504;-80
2022/12/02 13:14:18;;;;;;;29.93;13.23;;;;;;;1.26;95.00;101935.69;4885808;29;20115;-80
2022/12/02 13:16:46;;;;;;;25.60;12.87;;;;;;;1.33;97.34;101932.50;4907712;29;20121;-79
2022/12/02 13:19:18;;;;;;;31.27;13.80;;;;;;;1.29;96.64;101930.63;4871291;29;20617;-79
2022/12/02 13:21:45;;;;;;;28.47;12.83;;;;;;;1.23;97.95;101944.28;4901085;29;20062;-80
2022/12/02 13:24:14;;;;;;;27.33;14.27;;;;;;;1.28;97.37;101928.84;4885256;29;20048;-80
2022/12/02 13:26:41;;;;;;;27.67;12.83;;;;;;;1.29;97.77;101935.81;4868774;29;20135;-80
2022/12/02 13:29:09;;;;;;;24.47;12.83;;;;;;;1.24;99.78;101929.53;4900840;29;20127;-81
2022/12/02 13:31:36;;;;;;;30.30;14.83;;;;;;;1.29;96.14;101936.72;4918860;29;20430;-80
2022/12/02 13:34:04;;;;;;;31.87;14.37;;;;;;;1.15;96.80;101934.41;4897188;29;20127;-80
2022/12/02 13:36:31;;;;;;;29.37;14.00;;;;;;;0.99;97.62;101939.03;4902434;29;20120;-80
2022/12/02 13:38:57;;;;;;;28.87;13.43;;;;;;;0.93;98.36;101941.41;4902626;29;20159;-80
2022/12/02 13:41:32;;;;;;;28.80;14.57;;;;;;;0.95;96.97;101936.25;4907267;29;20118;-80
2022/12/02 13:43:59;;;;;;;34.03;16.03;;;;;;;0.97;99.02;101938.09;4886416;29;20498;-80
2022/12/02 13:46:26;;;;;;;31.40;15.87;;;;;;;1.03;98.12;101940.03;4877724;29;20111;-80
2022/12/02 13:48:53;;;;;;;31.63;15.47;;;;;;;0.79;99.99;101942.56;4903527;29;20087;-81
2022/12/02 13:51:20;;;;;;;33.03;14.73;;;;;;;0.96;97.42;101945.84;4887840;29;20055;-80
2022/12/02 13:53:47;;;;;;;31.60;13.90;;;;;;;0.94;98.65;101948.38;4906229;29;20111;-80
2022/12/02 13:56:14;;;;;;;30.67;15.80;;;;;;;0.93;97.75;101948.31;4893885;29;20042;-80
2022/12/02 13:58:41;;;;;;;34.27;15.33;;;;;;;1.06;98.23;101950.56;4895752;29;20506;-79
2022/12/02 14:01:08;;;;;;;29.10;15.13;;;;;;;1.02;97.51;101946.06;4898702;29;20054;-80
2022/12/02 14:03:35;;;;;;;28.70;15.37;;;;;;;0.88;100.00;101958.53;4901356;29;20743;-79
2022/12/02 14:06:02;;;;;;;35.10;15.07;;;;;;;0.93;99.39;101956.13;4917575;29;20808;-79
2022/12/02 14:08:29;;;;;;;34.80;15.80;;;;;;;1.01;98.90;101954.69;4912990;29;20442;-80
2022/12/02 14:10:56;;;;;;;34.47;16.33;;;;;;;0.84;99.30;101962.75;4935100;29;20054;-79
2022/12/02 14:13:23;;;;;;;33.77;15.00;;;;;;;0.83;99.55;101960.94;4939902;29;20127;-79
2022/12/02 14:15:51;;;;;;;33.33;15.93;;;;;;;0.84;98.29;101965.34;4935561;29;20046;-79
2022/12/02 14:18:18;;;;;;;30.03;14.63;;;;;;;0.90;100.00;101961.19;4937413;29;20122;-79
2022/12/02 14:20:45;;;;;;;32.47;17.50;;;;;;;0.96;95.79;101954.53;4928548;29;20519;-78
2022/12/02 14:23:12;;;;;;;32.30;15.37;;;;;;;0.80;97.66;101967.75;4941968;29;20051;-80
2022/12/02 14:25:39;;;;;;;35.77;15.87;;;;;;;0.84;99.88;101948.81;4938820;29;20036;-80
2022/12/02 14:28:06;;;;;;;32.40;15.57;;;;;;;0.87;99.29;101958.47;4927811;29;20044;-80
2022/12/02 14:30:35;;;;;;;33.87;15.27;;;;;;;0.88;98.68;101966.34;4934616;29;20052;-80
2022/12/02 14:33:02;;;;;;;36.60;16.23;;;;;;;0.88;95.89;101958.53;4932452;29;20046;-80
2022/12/02 14:35:29;;;;;;;34.50;17.47;;;;;;;0.92;95.80;101954.31;4935386;29;20040;-80
2022/12/02 14:37:56;;;;;;;37.17;17.20;;;;;;;0.77;94.50;101959.84;4912516;29;20048;-80
2022/12/02 14:40:23;;;;;;;36.83;17.57;;;;;;;0.71;95.51;101960.47;4938242;29;20040;-78
2022/12/02 14:42:50;;;;;;;39.20;17.80;;;;;;;0.71;96.42;101968.28;4927995;29;20463;-80
2022/12/02 14:45:17;;;;;;;39.20;19.97;;;;;;;0.72;95.99;101961.34;4930985;29;20054;-80
2022/12/02 14:47:44;;;;;;;42.50;19.70;;;;;;;0.66;95.17;101964.59;4948673;29;20050;-79
2022/12/02 14:50:11;;;;;;;41.40;18.97;;;;;;;0.69;96.13;101964.72;4935298;29;20052;-79
2022/12/02 14:52:43;;;;;;;39.90;18.83;;;;;;;0.65;97.18;101972.31;4902301;29;20615;-79
2022/12/02 14:55:10;;;;;;;49.97;24.87;;;;;;;0.66;94.47;101974.97;4939201;29;20039;-78
2022/12/02 14:57:37;;;;;;;49.37;24.60;;;;;;;0.55;94.84;101971.94;4920529;29;20052;-80
2022/12/02 15:00:05;;;;;;;33.63;17.57;;;;;;;0.55;96.15;101973.66;4938693;29;20091;-79
2022/12/02 15:02:32;;;;;;;35.23;17.80;;;;;;;0.50;97.51;101972.56;4938140;29;20537;-79
2022/12/02 15:04:58;;;;;;;32.00;16.43;;;;;;;0.45;96.03;101966.31;4904747;29;20054;-78
2022/12/02 15:07:26;;;;;;;32.93;16.00;;;;;;;0.46;92.69;101973.28;4922432;29;20307;-81
2022/12/02 15:09:53;;;;;;;32.37;16.30;;;;;;;0.35;92.43;101982.38;4906523;29;20044;-79
2022/12/02 15:12:20;;;;;;;34.93;15.30;;;;;;;0.41;94.51;101980.00;4939610;29;20043;-78
2022/12/02 15:14:47;;;;;;;33.60;17.57;;;;;;;0.25;94.42;101974.19;4910225;29;20086;-80
2022/12/02 15:17:14;;;;;;;29.53;15.80;;;;;;;0.34;95.47;101990.97;4918457;29;20054;-79
2022/12/02 15:19:41;;;;;;;31.97;14.43;;;;;;;0.45;95.09;101990.59;4906740;29;20043;-77
2022/12/02 15:22:08;;;;;;;30.63;14.27;;;;;;;0.39;95.47;101985.13;4922525;29;20042;-80
2022/12/02 15:24:35;;;;;;;33.30;16.17;;;;;;;0.38;97.00;101991.16;4918107;29;20040;-80
2022/12/02 15:27:05;;;;;;;31.97;16.80;;;;;;;0.24;93.98;101992.28;4907643;29;20426;-79
2022/12/02 15:29:34;;;;;;;37.37;18.03;;;;;;;0.22;94.93;102000.03;4925165;29;20134;-80
2022/12/02 15:32:02;;;;;;;115.43;66.47;;;;;;;0.19;95.48;101996.41;4922468;29;20130;-79
2022/12/02 15:34:29;;;;;;;43.47;23.90;;;;;;;0.18;94.94;101989.44;4921724;29;20046;-80
2022/12/02 15:36:56;;;;;;;31.87;16.67;;;;;;;0.15;96.19;101994.50;4902848;29;20062;-80
2022/12/02 15:39:23;;;;;;;42.17;17.87;;;;;;;0.25;94.62;102000.19;4899003;29;20831;-80
2022/12/02 15:41:50;;;;;;;37.50;17.80;;;;;;;0.25;94.69;101994.06;4913418;29;20480;-80